Time;durP1;ratioP1;P1;durP2;ratioP2;P2;SDS_P1;SDS_P2;PMS_P1;PMS_P2;Temp;Humidity;BMP_temperature;BMP_pressure;BME280_temperature;BME280_humidity;BME280_pressure;Samples;Min_cycle;Max_cycle;Signal;HPM_P1;HPM_P2
2021/07/16 00:00:41;;;;;;;22.75;12.15;;;;;;;22.79;68.91;99293.75;129997;1090;114292;-62
2021/07/16 00:03:10;;;;;;;32.85;12.15;;;;;;;22.81;68.71;99287.83;130285;1089;22563;-62
2021/07/16 00:05:39;;;;;;;21.73;11.80;;;;;;;22.81;68.96;99294.19;130366;1090;22550;-62
2021/07/16 00:08:10;;;;;;;24.38;12.38;;;;;;;22.76;68.97;99282.48;130229;1088;114624;-63
2021/07/16 00:10:39;;;;;;;27.98;12.83;;;;;;;22.80;69.25;99291.76;130139;1089;22539;-62
2021/07/16 00:13:08;;;;;;;20.93;11.83;;;;;;;22.80;68.96;99287.02;130246;1089;114391;-62
2021/07/16 00:15:57;;;;;;;21.05;12.58;;;;;;;22.80;68.92;99289.79;130382;1089;22575;-62
2021/07/16 00:18:26;;;;;;;30.03;12.70;;;;;;;22.81;68.83;99283.08;129988;1090;115225;-62
2021/07/16 00:20:55;;;;;;;28.30;12.57;;;;;;;22.80;68.92;99298.13;130169;1090;22531;-63
2021/07/16 00:23:24;;;;;;;19.53;12.33;;;;;;;22.80;68.86;99298.13;130093;1090;23611;-63
2021/07/16 00:25:53;;;;;;;21.45;12.23;;;;;;;22.81;68.97;99291.41;130210;1089;114538;-63
2021/07/16 00:28:22;;;;;;;16.40;11.58;;;;;;;22.79;68.91;99293.75;130398;1089;23336;-63
2021/07/16 00:30:51;;;;;;;26.58;12.75;;;;;;;22.78;69.08;99299.66;130235;1090;114741;-63
2021/07/16 00:33:20;;;;;;;23.13;12.18;;;;;;;22.77;68.96;99289.70;130143;1090;22558;-62
2021/07/16 00:35:49;;;;;;;23.18;11.23;;;;;;;22.72;69.08;99287.91;130420;1089;22608;-63
2021/07/16 00:38:17;;;;;;;24.53;11.80;;;;;;;22.69;69.55;99294.14;129955;1090;114737;-63
2021/07/16 00:40:46;;;;;;;18.98;11.80;;;;;;;22.66;69.48;99292.05;130097;1088;22544;-63
2021/07/16 00:43:15;;;;;;;19.73;11.10;;;;;;;22.63;69.45;99292.76;130040;1089;114116;-62
2021/07/16 00:45:44;;;;;;;25.90;12.80;;;;;;;22.60;69.77;99292.63;130422;1089;22571;-63
2021/07/16 00:48:13;;;;;;;16.25;12.55;;;;;;;22.58;69.64;99291.00;130094;1090;22686;-63
2021/07/16 00:50:42;;;;;;;19.13;13.05;;;;;;;22.55;69.84;99286.13;129980;1090;114312;-63
2021/07/16 00:53:15;;;;;;;19.23;10.90;;;;;;;22.53;69.87;99282.06;130133;1090;22548;-63
2021/07/16 00:55:45;;;;;;;18.78;12.00;;;;;;;22.50;69.97;99286.36;130002;1089;114575;-63
2021/07/16 00:58:15;;;;;;;31.18;12.73;;;;;;;22.47;70.22;99280.68;130141;1090;22520;-63
2021/07/16 01:00:44;;;;;;;22.88;11.65;;;;;;;22.44;70.15;99284.13;130278;1089;114649;-62
2021/07/16 01:03:14;;;;;;;25.43;11.35;;;;;;;22.36;70.33;99276.72;130142;1089;23446;-63
2021/07/16 01:05:44;;;;;;;30.18;12.40;;;;;;;22.39;70.46;99282.38;130120;1089;22632;-63
2021/07/16 01:08:12;;;;;;;28.53;12.18;;;;;;;22.36;70.59;99282.27;130262;1089;114507;-63
2021/07/16 01:10:58;;;;;;;24.58;11.23;;;;;;;22.32;70.52;99287.69;130122;1090;22737;-63
2021/07/16 01:13:27;;;;;;;14.75;11.30;;;;;;;22.30;70.69;99278.89;130005;1090;114756;-63
2021/07/16 01:15:56;;;;;;;21.38;12.38;;;;;;;22.29;70.78;99282.81;129990;1088;22593;-63
2021/07/16 01:18:25;;;;;;;19.05;12.08;;;;;;;22.27;70.88;99278.75;130319;1089;114260;-63
2021/07/16 01:20:56;;;;;;;21.75;11.93;;;;;;;22.26;70.93;99274.34;130420;1090;22580;-63
2021/07/16 01:23:24;;;;;;;24.43;12.73;;;;;;;22.23;70.93;99284.16;130078;1089;22778;-64
2021/07/16 01:25:54;;;;;;;21.25;12.08;;;;;;;22.22;71.04;99276.98;129988;1090;114114;-63
2021/07/16 01:28:22;;;;;;;16.88;12.05;;;;;;;22.21;71.15;99273.43;130133;1090;22572;-64
2021/07/16 01:30:53;;;;;;;15.90;11.65;;;;;;;22.21;71.02;99278.98;130245;1089;114293;-63
2021/07/16 01:33:22;;;;;;;15.20;11.20;;;;;;;22.21;71.09;99264.29;130135;1090;22576;-63
2021/07/16 01:35:52;;;;;;;23.80;11.30;;;;;;;22.20;71.10;99266.25;130101;1089;23685;-64
2021/07/16 01:38:21;;;;;;;16.20;12.15;;;;;;;22.19;71.16;99259.08;130243;1090;114385;-63
2021/07/16 01:40:50;;;;;;;23.13;12.83;;;;;;;22.19;71.03;99249.94;130112;1090;22522;-64
2021/07/16 01:43:19;;;;;;;17.18;12.05;;;;;;;22.18;71.20;99249.13;130300;1089;114340;-64
2021/07/16 01:45:47;;;;;;;20.98;12.00;;;;;;;22.17;71.20;99246.69;130068;1090;23270;-63
2021/07/16 01:48:17;;;;;;;17.05;11.75;;;;;;;22.13;71.23;99243.78;130083;1090;23768;-63
2021/07/16 01:50:47;;;;;;;20.70;11.05;;;;;;;22.13;71.38;99242.97;130261;1089;113471;-64
2021/07/16 01:53:18;;;;;;;18.18;11.25;;;;;;;22.10;71.45;99247.23;130090;1090;22540;-64
2021/07/16 01:55:48;;;;;;;26.25;11.48;;;;;;;22.10;71.47;99238.09;130285;1089;115676;-64
2021/07/16 01:58:17;;;;;;;21.13;11.93;;;;;;;22.09;71.44;99234.50;130381;1090;22534;-64
2021/07/16 02:00:47;;;;;;;20.80;11.68;;;;;;;22.08;71.25;99232.88;130025;1090;114325;-64
2021/07/16 02:04:11;;;;;;;22.48;11.55;;;;;;;22.07;71.31;99228.52;125515;1091;22823;-62
2021/07/16 02:06:39;;;;;;;19.93;11.53;;;;;;;22.06;71.32;99226.08;125210;1092;113830;-62
2021/07/16 02:09:09;;;;;;;19.20;12.55;;;;;;;22.04;71.30;99234.73;125150;1093;22818;-62
2021/07/16 02:11:38;;;;;;;19.45;11.98;;;;;;;22.03;71.21;99238.66;125072;1092;24364;-62
2021/07/16 02:14:10;;;;;;;19.53;12.20;;;;;;;22.03;71.07;99241.44;129669;1093;116568;-62
2021/07/16 02:16:39;;;;;;;20.78;11.73;;;;;;;22.04;70.85;99234.73;129810;1092;22554;-62
2021/07/16 02:19:23;;;;;;;27.23;12.08;;;;;;;22.05;70.90;99230.81;129664;1092;114086;-62
2021/07/16 02:21:52;;;;;;;15.68;12.38;;;;;;;22.07;70.74;99225.73;129841;1093;22568;-62
2021/07/16 02:24:23;;;;;;;18.28;11.88;;;;;;;22.10;70.54;99227.00;129696;1093;114943;-60
2021/07/16 02:26:52;;;;;;;21.10;12.18;;;;;;;22.12;70.58;99228.28;129781;1093;22558;-61
2021/07/16 02:29:20;;;;;;;17.23;11.45;;;;;;;22.13;70.52;99220.77;129763;1092;22575;-62
2021/07/16 02:31:51;;;;;;;18.80;11.85;;;;;;;22.13;70.62;99218.81;129636;1093;114412;-61
2021/07/16 02:34:20;;;;;;;22.53;12.23;;;;;;;22.15;70.67;99215.69;129773;1092;22577;-62
2021/07/16 02:36:49;;;;;;;19.65;11.63;;;;;;;22.17;70.53;99218.94;129689;1092;114128;-63
2021/07/16 02:39:18;;;;;;;24.50;11.90;;;;;;;22.17;70.38;99216.98;129372;1093;23387;-62
2021/07/16 02:41:47;;;;;;;26.40;12.25;;;;;;;22.20;70.50;99218.27;124982;1093;22929;-62
2021/07/16 02:44:18;;;;;;;18.58;11.53;;;;;;;22.21;70.40;99215.15;129625;1093;114119;-62
2021/07/16 02:46:47;;;;;;;16.45;10.10;;;;;;;22.22;70.53;99219.52;129796;1092;22596;-62
2021/07/16 02:49:16;;;;;;;18.78;11.60;;;;;;;22.27;70.51;99226.83;129651;1092;113937;-62
2021/07/16 02:51:45;;;;;;;20.78;12.35;;;;;;;22.30;70.33;99223.38;129800;1092;24802;-62
2021/07/16 02:54:13;;;;;;;24.40;11.90;;;;;;;22.33;70.00;99224.66;129762;1093;22563;-62
2021/07/16 02:56:42;;;;;;;19.43;11.00;;;;;;;22.38;69.93;99218.86;129618;1093;113617;-62
2021/07/16 02:59:11;;;;;;;26.30;10.70;;;;;;;22.42;69.92;99219.80;129719;1093;22599;-62
2021/07/16 03:02:03;;;;;;;21.63;11.48;;;;;;;22.46;69.69;99221.56;129701;1093;116661;-62
2021/07/16 03:04:34;;;;;;;16.53;10.98;;;;;;;22.49;69.85;99215.33;129770;1092;23200;-62
2021/07/16 03:07:03;;;;;;;21.75;11.60;;;;;;;22.53;70.45;99224.56;129676;1093;114135;-62
2021/07/16 03:09:34;;;;;;;27.63;10.77;;;;;;;22.56;70.66;99223.07;129761;1093;22551;-61
2021/07/16 03:12:04;;;;;;;24.83;11.65;;;;;;;22.58;71.03;99226.32;129743;1093;22572;-63
2021/07/16 03:14:53;;;;;;;15.18;10.63;;;;;;;22.61;71.06;99233.97;129579;1093;113980;-63
2021/07/16 03:17:22;;;;;;;23.53;12.58;;;;;;;;;;129809;1093;22547;-62
2021/07/16 03:19:50;;;;;;;21.55;11.70;;;;;;;22.70;71.04;99237.44;129715;1093;87760;-63
2021/07/16 03:22:39;;;;;;;15.25;11.20;;;;;;;22.76;71.22;99246.38;129800;1092;22564;-63
2021/07/16 03:25:10;;;;;;;15.58;10.85;;;;;;;22.80;71.15;99242.56;129680;1093;114102;-62
2021/07/16 03:27:39;;;;;;;20.78;11.93;;;;;;;22.87;70.86;99242.82;129760;1092;22546;-63
2021/07/16 03:30:19;;;;;;;18.95;12.95;;;;;;;22.93;70.88;99243.41;129777;1093;22697;-63
2021/07/16 03:32:48;;;;;;;30.20;12.18;;;;;;;23.00;71.00;99240.85;129641;1093;113862;-63
2021/07/16 03:35:19;;;;;;;19.33;12.33;;;;;;;23.06;70.72;99247.81;129826;1093;22518;-62
2021/07/16 03:37:48;;;;;;;22.05;11.08;;;;;;;23.14;70.48;99257.17;129624;1093;115144;-63
2021/07/16 03:40:18;;;;;;;24.73;11.80;;;;;;;23.21;69.68;99268.54;127497;1093;23925;-62
2021/07/16 03:42:47;;;;;;;23.02;11.58;;;;;;;23.27;68.93;99264.35;129661;1093;114376;-63
2021/07/16 03:45:18;;;;;;;27.68;11.33;;;;;;;23.37;68.32;99254.75;129803;1091;22696;-63
2021/07/16 03:47:47;;;;;;;18.13;10.35;;;;;;;23.46;67.77;99261.80;129767;1093;23204;-63
2021/07/16 03:50:17;;;;;;;14.20;10.03;;;;;;;23.57;67.18;99262.14;129694;1093;113952;-63
2021/07/16 03:52:47;;;;;;;16.55;9.63;;;;;;;23.67;66.99;99260.84;129772;1093;22645;-63
2021/07/16 03:55:16;;;;;;;17.85;9.40;;;;;;;23.76;66.45;99267.91;129649;1092;114360;-63
2021/07/16 03:57:47;;;;;;;37.35;11.05;;;;;;;23.85;65.92;99264.97;129791;1093;22552;-63
2021/07/16 04:00:25;;;;;;;38.20;10.98;;;;;;;23.94;65.27;99260.91;129771;1092;22725;-63
2021/07/16 04:02:55;;;;;;;21.00;9.10;;;;;;;24.05;64.58;99263.18;129648;1092;113769;-63
2021/07/16 04:05:25;;;;;;;55.48;11.73;;;;;;;24.14;64.17;99266.61;129794;1093;22550;-63
2021/07/16 04:08:02;;;;;;;18.68;9.15;;;;;;;24.22;63.93;99262.88;129649;1092;114871;-63
2021/07/16 04:10:34;;;;;;;13.73;9.73;;;;;;;24.33;63.95;99263.20;129788;1093;22629;-63
2021/07/16 04:13:05;;;;;;;15.98;8.95;;;;;;;24.42;63.22;99256.30;129672;1093;114111;-63
2021/07/16 04:15:34;;;;;;;13.33;9.68;;;;;;;24.53;63.10;99253.79;129759;1092;23117;-63
2021/07/16 04:18:04;;;;;;;16.35;9.78;;;;;;;24.63;62.11;99267.22;129778;1093;22557;-63
2021/07/16 04:20:36;;;;;;;15.23;10.30;;;;;;;24.73;62.80;99260.30;129666;1092;113796;-63
2021/07/16 04:23:04;;;;;;;19.73;9.65;;;;;;;24.81;62.22;99268.50;129781;1092;23218;-63
2021/07/16 04:25:33;;;;;;;13.03;10.18;;;;;;;24.91;61.72;99267.14;129657;1093;113635;-63
2021/07/16 04:28:03;;;;;;;19.33;10.20;;;;;;;24.99;61.92;99260.59;129758;1093;22598;-63
2021/07/16 04:30:33;;;;;;;18.00;8.93;;;;;;;25.09;62.16;99262.05;129775;1091;114566;-61
2021/07/16 04:33:03;;;;;;;14.25;10.58;;;;;;;25.18;61.40;99259.87;129791;1093;22581;-64
2021/07/16 04:35:32;;;;;;;16.30;9.98;;;;;;;25.26;61.16;99261.64;129791;1093;23671;-63
2021/07/16 04:38:01;;;;;;;16.58;8.43;;;;;;;25.34;61.54;99269.02;129679;1093;113757;-63
2021/07/16 04:40:32;;;;;;;15.65;9.43;;;;;;;25.45;61.03;99260.90;129776;1092;22650;-63
2021/07/16 04:43:02;;;;;;;21.75;8.83;;;;;;;25.52;60.44;99256.31;129679;1092;113747;-63
2021/07/16 04:45:36;;;;;;;18.13;8.83;;;;;;;25.61;59.53;99262.52;129753;1093;23305;-63
2021/07/16 04:48:06;;;;;;;24.78;9.93;;;;;;;25.68;59.20;99265.45;129833;1092;22601;-64
2021/07/16 04:50:37;;;;;;;20.30;9.28;;;;;;;25.76;59.74;99255.27;129632;1093;113762;-64
2021/07/16 04:53:06;;;;;;;21.80;10.15;;;;;;;25.85;59.33;99263.41;129748;1092;22594;-63
2021/07/16 04:55:35;;;;;;;19.58;9.75;;;;;;;25.92;58.72;99261.59;129583;1093;114167;-63
2021/07/16 04:58:04;;;;;;;18.58;9.08;;;;;;;26.02;59.13;99265.78;129773;1093;22644;-64
2021/07/16 05:00:33;;;;;;;23.78;9.05;;;;;;;26.10;58.88;99277.92;129619;1093;113995;-63
2021/07/16 05:03:03;;;;;;;16.55;8.95;;;;;;;26.16;58.06;99266.07;129789;1092;22641;-63
2021/07/16 05:05:32;;;;;;;16.58;9.20;;;;;;;26.26;57.25;99275.83;129753;1092;22556;-63
2021/07/16 05:08:01;;;;;;;23.55;10.23;;;;;;;26.33;57.16;99265.66;129709;1093;113813;-64
2021/07/16 05:10:30;;;;;;;20.40;9.53;;;;;;;26.44;57.34;99270.63;129765;1093;23443;-63
2021/07/16 05:12:59;;;;;;;27.93;8.98;;;;;;;26.56;56.98;99273.25;129714;1092;113965;-63
2021/07/16 05:15:28;;;;;;;56.03;14.85;;;;;;;26.69;56.58;99272.70;129721;1093;22599;-64
2021/07/16 05:17:57;;;;;;;25.50;11.00;;;;;;;26.83;55.98;99271.38;129798;1091;22614;-63
2021/07/16 05:20:26;;;;;;;18.15;9.23;;;;;;;27.00;54.99;99274.48;129658;1093;114420;-63
2021/07/16 05:22:55;;;;;;;19.43;8.88;;;;;;;27.20;55.04;99266.02;129772;1093;22605;-63
2021/07/16 05:25:24;;;;;;;19.10;9.18;;;;;;;27.46;54.48;99268.83;129642;1092;114190;-63
2021/07/16 05:27:53;;;;;;;18.43;8.93;;;;;;;27.73;53.41;99267.66;129823;1092;22790;-63
2021/07/16 05:30:28;;;;;;;15.80;8.03;;;;;;;28.01;52.48;99269.22;129773;1093;22623;-63
2021/07/16 05:32:57;;;;;;;16.90;8.70;;;;;;;28.27;51.68;99260.80;129661;1093;113104;-63
2021/07/16 05:35:26;;;;;;;21.03;8.38;;;;;;;28.52;51.12;99251.84;129744;1093;22560;-63
2021/07/16 05:37:55;;;;;;;14.68;7.58;;;;;;;28.76;50.39;99254.08;129674;1092;114140;-63
2021/07/16 05:40:25;;;;;;;11.63;7.43;;;;;;;28.97;49.69;99248.70;129779;1093;22631;-63
2021/07/16 05:42:54;;;;;;;12.18;8.15;;;;;;;29.18;49.00;99260.09;129696;1093;113919;-62
2021/07/16 05:45:23;;;;;;;23.35;8.75;;;;;;;29.35;48.74;99257.81;129785;1093;22567;-63
2021/07/16 05:47:54;;;;;;;14.80;8.18;;;;;;;29.56;48.35;99262.80;129712;1092;22602;-63
2021/07/16 05:50:23;;;;;;;20.95;8.05;;;;;;;29.77;47.83;99258.10;129688;1092;113782;-62
2021/07/16 05:52:52;;;;;;;16.65;8.20;;;;;;;29.99;47.06;99261.06;129784;1093;22602;-63
2021/07/16 05:55:20;;;;;;;12.43;7.70;;;;;;;30.15;46.78;99261.54;129681;1092;114388;-63
2021/07/16 05:57:50;;;;;;;19.55;8.53;;;;;;;30.30;46.23;99262.39;129773;1093;22589;-63
2021/07/16 06:00:19;;;;;;;13.75;7.63;;;;;;;30.40;46.36;99265.23;129781;1092;22583;-63
2021/07/16 06:02:50;;;;;;;17.00;7.73;;;;;;;30.53;45.92;99266.47;129644;1092;113826;-63
2021/07/16 06:05:20;;;;;;;17.03;7.70;;;;;;;30.63;45.46;99261.28;129806;1092;22632;-62
2021/07/16 06:07:49;;;;;;;10.73;7.70;;;;;;;30.63;45.58;99261.28;129673;1093;114055;-63
2021/07/16 06:10:18;;;;;;;15.85;7.40;;;;;;;30.65;45.48;99259.69;129777;1093;23302;-63
2021/07/16 06:12:47;;;;;;;15.10;8.25;;;;;;;30.65;45.39;99259.69;129630;1092;113870;-62
2021/07/16 06:15:16;;;;;;;16.65;8.08;;;;;;;30.55;45.53;99254.86;129787;1092;22646;-63
2021/07/16 06:17:48;;;;;;;8.28;7.48;;;;;;;30.55;45.79;99263.30;129751;1093;22551;-63
2021/07/16 06:20:17;;;;;;;11.38;8.50;;;;;;;30.48;45.93;99261.22;129660;1092;113931;-63
2021/07/16 06:22:46;;;;;;;11.55;8.05;;;;;;;30.42;45.96;99253.59;129754;1093;23430;-63
2021/07/16 06:25:17;;;;;;;10.70;7.88;;;;;;;30.32;45.69;99263.58;129677;1093;113968;-63
2021/07/16 06:27:47;;;;;;;14.05;8.30;;;;;;;30.19;46.44;99265.14;129734;1092;22580;-63
2021/07/16 06:30:16;;;;;;;16.83;8.50;;;;;;;30.06;46.89;99261.89;129807;1092;22645;-63
2021/07/16 06:32:48;;;;;;;10.90;8.90;;;;;;;29.96;46.72;99265.44;129664;1093;113904;-63
2021/07/16 06:35:17;;;;;;;12.27;9.07;;;;;;;29.83;46.85;99269.78;129778;1093;23168;-63
2021/07/16 06:37:46;;;;;;;14.65;10.93;;;;;;;29.68;47.02;99268.89;129682;1092;114252;-62
2021/07/16 06:40:16;;;;;;;15.58;10.38;;;;;;;29.53;47.91;99268.00;127636;1092;22792;-62
2021/07/16 06:42:45;;;;;;;13.20;10.88;;;;;;;29.43;47.94;99267.94;125077;1093;114360;-62
2021/07/16 06:45:14;;;;;;;12.83;10.13;;;;;;;29.37;48.50;99275.88;125082;1092;22938;-64
2021/07/16 06:47:43;;;;;;;13.47;10.73;;;;;;;29.37;48.41;99270.27;125141;1092;22825;-62
2021/07/16 06:50:11;;;;;;;14.78;11.75;;;;;;;29.36;49.01;99265.84;124994;1093;114230;-62
2021/07/16 06:52:41;;;;;;;25.45;11.85;;;;;;;29.37;49.10;99269.45;130047;1090;23481;-62
2021/07/16 06:55:10;;;;;;;24.50;13.15;;;;;;;29.35;48.97;99269.84;129951;1090;113657;-63
2021/07/16 06:57:39;;;;;;;18.73;12.70;;;;;;;29.34;49.38;99267.42;130071;1090;22666;-63
2021/07/16 07:00:08;;;;;;;18.48;12.33;;;;;;;29.38;49.57;99271.06;130049;1090;22606;-63
2021/07/16 07:02:37;;;;;;;16.23;12.10;;;;;;;29.41;49.65;99265.52;129988;1090;113948;-62
2021/07/16 07:05:07;;;;;;;15.53;11.70;;;;;;;29.45;50.13;99262.71;130041;1090;22567;-63
2021/07/16 07:07:36;;;;;;;15.95;12.68;;;;;;;29.49;50.23;99266.36;130002;1090;114680;-63
2021/07/16 07:10:05;;;;;;;18.33;13.00;;;;;;;29.54;50.22;99271.62;130041;1090;23682;-63
2021/07/16 07:12:36;;;;;;;14.23;12.68;;;;;;;29.59;51.00;99267.61;130104;1090;23487;-62
2021/07/16 07:15:06;;;;;;;14.83;11.55;;;;;;;29.63;50.25;99269.25;129951;1088;113784;-64
2021/07/16 07:17:40;;;;;;;14.20;12.28;;;;;;;29.68;50.86;99271.70;130089;1090;23345;-63
2021/07/16 07:20:10;;;;;;;19.53;12.90;;;;;;;29.71;50.46;99275.73;129957;1090;113839;-64
2021/07/16 07:22:40;;;;;;;20.90;12.80;;;;;;;29.70;50.39;99274.93;130111;1090;22621;-64
2021/07/16 07:25:10;;;;;;;17.18;12.83;;;;;;;29.70;50.31;99280.55;129975;1090;114782;-63
2021/07/16 07:27:39;;;;;;;18.53;13.18;;;;;;;29.69;50.85;99276.13;130091;1090;23023;-64
2021/07/16 07:30:08;;;;;;;16.70;13.43;;;;;;;29.68;50.58;99274.52;130046;1090;22557;-64
2021/07/16 07:32:37;;;;;;;15.28;13.75;;;;;;;29.67;50.48;99275.70;129945;1090;113933;-64
2021/07/16 07:35:07;;;;;;;19.18;13.70;;;;;;;29.65;50.76;99283.72;130074;1088;22642;-64
2021/07/16 07:37:36;;;;;;;18.60;14.60;;;;;;;29.68;51.25;99280.13;130007;1090;114154;-64
2021/07/16 07:40:06;;;;;;;20.33;13.13;;;;;;;29.69;50.71;99283.74;128113;1090;22791;-63
2021/07/16 07:42:35;;;;;;;14.95;12.65;;;;;;;29.69;51.12;99290.17;130119;1090;22761;-64
2021/07/16 07:45:08;;;;;;;19.43;13.50;;;;;;;29.69;51.35;99290.17;130003;1090;115609;-63
2021/07/16 07:47:37;;;;;;;17.83;13.35;;;;;;;29.70;51.44;99276.94;130087;1090;23134;-64
2021/07/16 07:50:08;;;;;;;17.15;13.35;;;;;;;29.70;51.17;99286.16;130009;1090;114334;-64
2021/07/16 07:52:37;;;;;;;18.98;13.50;;;;;;;29.72;51.41;99282.97;130086;1090;23412;-64
2021/07/16 07:55:08;;;;;;;18.90;14.10;;;;;;;29.77;50.90;99288.20;129956;1090;114632;-64
2021/07/16 07:57:40;;;;;;;40.38;16.13;;;;;;;29.83;50.84;99289.45;130035;1090;23379;-64
2021/07/16 08:00:17;;;;;;;19.30;14.00;;;;;;;29.87;50.65;99287.44;130118;1090;22546;-63
2021/07/16 08:02:46;;;;;;;19.45;13.60;;;;;;;29.89;51.28;99288.66;129961;1090;114135;-64
2021/07/16 08:05:15;;;;;;;21.77;14.40;;;;;;;29.95;51.04;99291.91;130108;1090;22676;-64
2021/07/16 08:07:44;;;;;;;26.00;14.85;;;;;;;30.01;50.75;99284.73;129948;1090;114072;-64
2021/07/16 08:10:14;;;;;;;16.03;13.43;;;;;;;30.07;50.42;99282.36;130104;1090;22629;-64
2021/07/16 08:12:43;;;;;;;15.83;13.13;;;;;;;30.10;49.95;99282.38;129958;1090;114376;-63
2021/07/16 08:15:13;;;;;;;22.35;16.10;;;;;;;30.15;50.60;99284.02;130060;1090;23506;-64
2021/07/16 08:17:41;;;;;;;26.18;15.80;;;;;;;30.17;50.20;99290.83;130096;1090;23403;-64
2021/07/16 08:20:11;;;;;;;36.18;16.45;;;;;;;30.18;50.19;99292.45;130001;1090;115004;-63
2021/07/16 08:22:40;;;;;;;25.40;15.63;;;;;;;30.17;50.24;99287.22;130093;1090;22546;-64
2021/07/16 08:25:10;;;;;;;19.90;15.38;;;;;;;30.17;50.63;99287.22;130011;1089;114779;-63
2021/07/16 08:27:40;;;;;;;33.10;15.05;;;;;;;30.21;50.88;99282.42;130027;1089;22608;-64
2021/07/16 08:30:09;;;;;;;26.93;14.95;;;;;;;30.28;51.37;99299.33;130094;1089;22605;-64
2021/07/16 08:32:38;;;;;;;33.48;16.30;;;;;;;30.35;51.37;99293.72;129956;1089;114664;-64
2021/07/16 08:35:07;;;;;;;25.35;16.43;;;;;;;30.42;52.41;99288.14;130113;1090;22592;-64
2021/07/16 08:37:36;;;;;;;24.68;17.28;;;;;;;30.50;51.30;99286.94;129975;1090;114078;-63
2021/07/16 08:40:06;;;;;;;23.70;16.83;;;;;;;30.57;50.10;99281.38;128167;1090;25739;-63
2021/07/16 08:42:35;;;;;;;25.55;16.80;;;;;;;30.62;51.21;99284.98;125787;1089;22919;-63
2021/07/16 08:45:08;;;;;;;25.65;16.33;;;;;;;30.67;50.62;99285.41;125632;1089;113973;-63
2021/07/16 08:47:37;;;;;;;24.38;16.30;;;;;;;30.73;50.78;99283.03;130418;1090;22588;-63
2021/07/16 08:50:07;;;;;;;24.60;15.95;;;;;;;30.78;50.29;99285.42;130311;1089;114284;-64
2021/07/16 08:52:38;;;;;;;20.68;15.20;;;;;;;30.82;49.45;99284.23;130477;1090;22615;-64
2021/07/16 08:55:07;;;;;;;16.73;14.20;;;;;;;30.86;49.03;99273.00;130321;1088;114689;-63
2021/07/16 08:57:36;;;;;;;18.93;14.63;;;;;;;30.87;48.34;99275.41;130466;1089;22572;-64
2021/07/16 09:00:13;;;;;;;21.00;15.53;;;;;;;30.84;48.68;99275.40;130469;1089;22563;-64
2021/07/16 09:02:54;;;;;;;20.45;16.10;;;;;;;30.91;48.52;99281.02;130061;1088;114082;-64
2021/07/16 09:05:43;;;;;;;18.63;16.73;;;;;;;30.94;48.55;99280.22;130436;1090;23467;-64
2021/07/16 09:08:22;;;;;;;20.20;17.23;;;;;;;30.97;49.31;99287.06;130369;1089;114229;-64
2021/07/16 09:10:57;;;;;;;20.43;17.10;;;;;;;30.99;49.59;99288.28;130489;1089;23058;-64
2021/07/16 09:13:29;;;;;;;24.45;16.75;;;;;;;31.01;49.52;99282.25;130325;1090;114399;-63
2021/07/16 09:16:01;;;;;;;20.93;17.95;;;;;;;31.02;49.70;99279.02;130446;1090;22644;-63
2021/07/16 09:18:32;;;;;;;19.15;16.30;;;;;;;31.04;49.52;99281.42;130492;1090;22529;-64
2021/07/16 09:21:01;;;;;;;18.68;15.90;;;;;;;31.05;48.90;99272.59;130319;1090;113836;-64
2021/07/16 09:23:44;;;;;;;24.08;15.38;;;;;;;31.06;48.56;99274.20;130478;1090;22684;-64
2021/07/16 09:26:23;;;;;;;34.95;17.25;;;;;;;31.05;48.68;99278.22;130359;1090;114771;-64
2021/07/16 09:28:52;;;;;;;19.05;16.53;;;;;;;31.06;49.27;99282.64;130479;1090;22558;-64
2021/07/16 09:31:24;;;;;;;18.58;15.00;;;;;;;31.06;48.51;99276.20;130004;1088;114325;-64
2021/07/16 09:34:01;;;;;;;18.18;16.38;;;;;;;31.07;48.49;99275.00;130482;1090;22616;-64
2021/07/16 09:36:31;;;;;;;20.85;16.93;;;;;;;31.06;49.44;99273.39;130404;1089;22542;-64
2021/07/16 09:39:09;;;;;;;18.50;16.53;;;;;;;31.06;49.37;99273.39;130351;1090;114185;-64
2021/07/16 09:41:51;;;;;;;21.77;16.20;;;;;;;31.05;49.03;99278.22;130431;1088;22531;-63
2021/07/16 09:44:31;;;;;;;16.73;14.73;;;;;;;31.07;48.86;99283.45;130334;1090;114712;-63
2021/07/16 09:47:16;;;;;;;18.73;14.63;;;;;;;31.09;47.85;99287.47;130380;1088;22859;-63
2021/07/16 09:50:10;;;;;;;15.70;14.17;;;;;;;31.06;48.63;99276.20;130371;1088;114117;-64
2021/07/16 09:52:39;;;;;;;18.08;15.50;;;;;;;31.06;48.77;99281.83;130478;1089;23522;-64
2021/07/16 09:55:11;;;;;;;18.50;15.68;;;;;;;31.04;47.97;99279.42;130046;1089;114480;-64
2021/07/16 09:57:41;;;;;;;19.35;15.53;;;;;;;31.02;48.42;99273.38;130340;1090;22561;-64
2021/07/16 10:00:24;;;;;;;17.00;15.30;;;;;;;31.02;48.53;99276.20;130418;1090;22641;-64
2021/07/16 10:02:56;;;;;;;19.10;15.18;;;;;;;31.04;49.19;99275.80;130316;1090;114111;-63
2021/07/16 10:05:27;;;;;;;17.38;15.20;;;;;;;31.07;49.15;99280.63;130290;1089;22614;-64
2021/07/16 10:07:56;;;;;;;18.83;14.00;;;;;;;31.10;48.64;99274.23;130040;1090;114144;-64
2021/07/16 10:10:24;;;;;;;16.23;14.38;;;;;;;31.11;48.60;99273.84;130154;1090;22570;-64
2021/07/16 10:12:54;;;;;;;17.50;13.88;;;;;;;31.13;49.16;99265.80;130324;1090;114261;-64
2021/07/16 10:15:44;;;;;;;21.75;14.95;;;;;;;31.21;48.69;99272.22;130426;1089;22544;-64
2021/07/16 10:18:12;;;;;;;16.60;14.48;;;;;;;31.24;48.16;99266.59;130447;1090;23162;-64
2021/07/16 10:21:01;;;;;;;16.50;14.23;;;;;;;31.27;47.97;99274.24;130342;1090;114026;-64
2021/07/16 10:23:30;;;;;;;17.93;15.35;;;;;;;31.25;48.43;99271.02;130434;1090;22554;-64
2021/07/16 10:25:59;;;;;;;15.75;13.10;;;;;;;31.21;48.55;99260.95;130059;1090;114107;-64
2021/07/16 10:28:41;;;;;;;15.83;14.33;;;;;;;31.25;48.50;99276.65;130433;1090;22739;-64
2021/07/16 10:31:28;;;;;;;15.90;14.28;;;;;;;31.20;48.02;99271.41;130385;1089;114338;-64
2021/07/16 10:34:04;;;;;;;15.60;14.00;;;;;;;31.12;47.93;99266.20;130462;1090;22592;-64
2021/07/16 10:36:40;;;;;;;17.00;13.93;;;;;;;31.08;48.02;99260.53;130453;1089;23115;-64
2021/07/16 10:39:10;;;;;;;16.13;13.25;;;;;;;31.06;48.51;99253.69;130337;1089;114804;-63
2021/07/16 10:41:41;;;;;;;15.88;12.45;;;;;;;31.06;49.47;99256.51;130503;1089;22647;-64
2021/07/16 10:44:12;;;;;;;17.48;13.93;;;;;;;31.05;49.14;99255.70;130268;1090;114536;-64
2021/07/16 10:46:44;;;;;;;18.78;14.63;;;;;;;31.05;48.99;99266.95;130285;1090;22553;-63
2021/07/16 10:49:14;;;;;;;19.13;13.88;;;;;;;31.05;48.77;99252.08;130071;1090;114367;-63
2021/07/16 10:51:43;;;;;;;14.33;12.83;;;;;;;31.04;48.14;99254.09;130464;1089;22690;-64
2021/07/16 10:54:15;;;;;;;15.13;13.35;;;;;;;31.00;48.27;99247.68;130463;1090;22595;-64
2021/07/16 10:56:46;;;;;;;18.45;14.48;;;;;;;30.99;49.10;99237.63;130081;1089;114165;-64
2021/07/16 10:59:43;;;;;;;14.03;12.53;;;;;;;31.01;48.81;99242.86;130441;1089;22652;-64
2021/07/16 11:02:47;;;;;;;17.10;14.48;;;;;;;31.04;48.45;99244.84;130360;1089;114136;-63
2021/07/16 11:05:32;;;;;;;14.30;12.75;;;;;;;31.10;48.24;99244.08;130434;1090;22598;-64
2021/07/16 11:08:05;;;;;;;15.63;12.68;;;;;;;31.16;47.45;99234.04;130334;1090;113948;-64
2021/07/16 11:10:50;;;;;;;15.95;12.95;;;;;;;31.19;47.75;99240.84;130504;1090;24347;-64
2021/07/16 11:13:45;;;;;;;17.78;12.98;;;;;;;31.21;47.29;99236.43;130330;1090;114431;-64
2021/07/16 11:16:29;;;;;;;15.60;12.95;;;;;;;31.23;46.82;99245.28;130359;1088;22591;-64
2021/07/16 11:19:03;;;;;;;13.30;12.10;;;;;;;31.23;46.97;99239.64;130322;1089;114669;-63
2021/07/16 11:21:40;;;;;;;13.75;11.70;;;;;;;31.24;46.88;99234.82;130500;1088;23540;-64
2021/07/16 11:24:18;;;;;;;12.97;11.57;;;;;;;31.26;45.50;99230.41;130453;1088;22631;-64
2021/07/16 11:26:56;;;;;;;14.55;11.78;;;;;;;31.32;45.52;99227.16;130404;1090;114032;-63